sensor_id;sensor_type;location;lat;lon;timestamp;P1;durP1;ratioP1;P2;durP2;ratioP2
20322;SDS011;10319;52.206;20.996;2022-07-09T00:01:13;6.17;;;1.10;;
20322;SDS011;10319;52.206;20.996;2022-07-09T00:03:38;1.57;;;0.70;;
20322;SDS011;10319;52.206;20.996;2022-07-09T00:06:04;6.23;;;1.33;;
20322;SDS011;10319;52.206;20.996;2022-07-09T00:08:29;3.70;;;0.80;;
20322;SDS011;10319;52.206;20.996;2022-07-09T00:10:54;3.80;;;0.83;;
20322;SDS011;10319;52.206;20.996;2022-07-09T00:13:19;2.80;;;0.90;;
20322;SDS011;10319;52.206;20.996;2022-07-09T00:15:45;5.07;;;1.10;;
20322;SDS011;10319;52.206;20.996;2022-07-09T00:18:10;7.20;;;1.40;;
20322;SDS011;10319;52.206;20.996;2022-07-09T00:20:35;5.33;;;1.50;;
20322;SDS011;10319;52.206;20.996;2022-07-09T00:23:00;4.90;;;1.33;;
20322;SDS011;10319;52.206;20.996;2022-07-09T00:25:25;5.73;;;1.30;;
20322;SDS011;10319;52.206;20.996;2022-07-09T00:27:51;4.83;;;1.10;;
20322;SDS011;10319;52.206;20.996;2022-07-09T00:30:16;7.37;;;1.50;;
20322;SDS011;10319;52.206;20.996;2022-07-09T00:32:41;8.40;;;1.63;;
20322;SDS011;10319;52.206;20.996;2022-07-09T00:35:06;6.67;;;1.60;;
20322;SDS011;10319;52.206;20.996;2022-07-09T00:37:32;5.97;;;1.33;;
20322;SDS011;10319;52.206;20.996;2022-07-09T00:39:57;7.03;;;1.60;;
20322;SDS011;10319;52.206;20.996;2022-07-09T00:42:22;4.53;;;1.20;;
20322;SDS011;10319;52.206;20.996;2022-07-09T00:44:49;7.73;;;1.40;;
20322;SDS011;10319;52.206;20.996;2022-07-09T00:47:14;5.30;;;1.27;;
20322;SDS011;10319;52.206;20.996;2022-07-09T00:49:41;4.33;;;1.37;;
20322;SDS011;10319;52.206;20.996;2022-07-09T00:52:06;5.80;;;1.50;;
20322;SDS011;10319;52.206;20.996;2022-07-09T00:54:32;6.50;;;1.50;;
20322;SDS011;10319;52.206;20.996;2022-07-09T00:56:57;5.30;;;1.50;;
20322;SDS011;10319;52.206;20.996;2022-07-09T00:59:23;7.57;;;1.60;;
20322;SDS011;10319;52.206;20.996;2022-07-09T01:01:49;9.43;;;1.50;;
20322;SDS011;10319;52.206;20.996;2022-07-09T01:04:14;6.20;;;1.40;;
20322;SDS011;10319;52.206;20.996;2022-07-09T01:06:39;6.97;;;1.53;;
20322;SDS011;10319;52.206;20.996;2022-07-09T01:09:05;7.93;;;1.60;;
20322;SDS011;10319;52.206;20.996;2022-07-09T01:11:30;9.30;;;1.80;;
20322;SDS011;10319;52.206;20.996;2022-07-09T01:13:55;8.53;;;1.70;;
20322;SDS011;10319;52.206;20.996;2022-07-09T01:16:20;8.63;;;1.70;;
20322;SDS011;10319;52.206;20.996;2022-07-09T01:18:46;6.63;;;1.63;;
20322;SDS011;10319;52.206;20.996;2022-07-09T01:21:12;5.10;;;1.60;;
20322;SDS011;10319;52.206;20.996;2022-07-09T01:23:37;7.63;;;1.77;;
20322;SDS011;10319;52.206;20.996;2022-07-09T01:26:02;5.90;;;1.60;;
20322;SDS011;10319;52.206;20.996;2022-07-09T01:28:28;7.60;;;1.97;;
20322;SDS011;10319;52.206;20.996;2022-07-09T01:30:53;5.10;;;1.37;;
20322;SDS011;10319;52.206;20.996;2022-07-09T01:33:18;8.17;;;1.77;;
20322;SDS011;10319;52.206;20.996;2022-07-09T01:35:43;8.30;;;1.80;;
20322;SDS011;10319;52.206;20.996;2022-07-09T01:38:08;9.63;;;2.30;;
20322;SDS011;10319;52.206;20.996;2022-07-09T01:40:34;8.23;;;1.77;;
20322;SDS011;10319;52.206;20.996;2022-07-09T01:42:59;8.13;;;1.60;;
20322;SDS011;10319;52.206;20.996;2022-07-09T01:45:24;10.60;;;1.80;;
20322;SDS011;10319;52.206;20.996;2022-07-09T01:47:49;10.30;;;1.83;;
20322;SDS011;10319;52.206;20.996;2022-07-09T01:50:14;8.43;;;1.90;;
20322;SDS011;10319;52.206;20.996;2022-07-09T01:52:40;8.97;;;1.77;;
20322;SDS011;10319;52.206;20.996;2022-07-09T01:55:05;9.10;;;2.00;;
20322;SDS011;10319;52.206;20.996;2022-07-09T01:57:30;7.37;;;1.73;;
20322;SDS011;10319;52.206;20.996;2022-07-09T01:59:56;9.57;;;1.77;;
20322;SDS011;10319;52.206;20.996;2022-07-09T02:02:22;6.53;;;1.70;;
20322;SDS011;10319;52.206;20.996;2022-07-09T02:04:47;9.00;;;1.90;;
20322;SDS011;10319;52.206;20.996;2022-07-09T02:07:13;7.10;;;1.80;;
20322;SDS011;10319;52.206;20.996;2022-07-09T02:09:38;7.03;;;1.73;;
20322;SDS011;10319;52.206;20.996;2022-07-09T02:12:04;6.50;;;1.47;;
20322;SDS011;10319;52.206;20.996;2022-07-09T02:14:29;10.60;;;2.00;;
20322;SDS011;10319;52.206;20.996;2022-07-09T02:16:54;8.67;;;1.70;;
20322;SDS011;10319;52.206;20.996;2022-07-09T02:19:19;9.00;;;1.73;;
20322;SDS011;10319;52.206;20.996;2022-07-09T02:21:44;9.97;;;1.80;;
20322;SDS011;10319;52.206;20.996;2022-07-09T02:24:10;8.27;;;1.63;;
20322;SDS011;10319;52.206;20.996;2022-07-09T02:26:35;11.00;;;1.80;;
20322;SDS011;10319;52.206;20.996;2022-07-09T02:29:00;7.70;;;1.80;;
20322;SDS011;10319;52.206;20.996;2022-07-09T02:31:27;6.73;;;1.87;;
20322;SDS011;10319;52.206;20.996;2022-07-09T02:33:52;8.00;;;1.77;;
20322;SDS011;10319;52.206;20.996;2022-07-09T02:36:17;9.87;;;1.83;;
20322;SDS011;10319;52.206;20.996;2022-07-09T02:38:42;8.20;;;1.90;;
20322;SDS011;10319;52.206;20.996;2022-07-09T02:41:07;9.67;;;1.83;;
20322;SDS011;10319;52.206;20.996;2022-07-09T02:43:33;12.97;;;2.03;;
20322;SDS011;10319;52.206;20.996;2022-07-09T02:45:58;8.60;;;1.97;;
20322;SDS011;10319;52.206;20.996;2022-07-09T02:48:23;10.03;;;1.80;;
20322;SDS011;10319;52.206;20.996;2022-07-09T02:50:50;9.73;;;2.33;;
20322;SDS011;10319;52.206;20.996;2022-07-09T02:53:15;8.87;;;1.70;;
20322;SDS011;10319;52.206;20.996;2022-07-09T02:55:40;8.30;;;2.00;;
20322;SDS011;10319;52.206;20.996;2022-07-09T02:58:05;8.50;;;2.03;;
20322;SDS011;10319;52.206;20.996;2022-07-09T03:00:31;8.80;;;2.20;;
20322;SDS011;10319;52.206;20.996;2022-07-09T03:02:56;11.00;;;2.20;;
20322;SDS011;10319;52.206;20.996;2022-07-09T03:05:21;8.80;;;2.20;;
20322;SDS011;10319;52.206;20.996;2022-07-09T03:07:46;11.47;;;2.17;;
20322;SDS011;10319;52.206;20.996;2022-07-09T03:10:11;6.40;;;2.03;;
20322;SDS011;10319;52.206;20.996;2022-07-09T03:12:37;9.60;;;2.00;;
20322;SDS011;10319;52.206;20.996;2022-07-09T03:15:02;8.90;;;1.90;;
20322;SDS011;10319;52.206;20.996;2022-07-09T03:17:27;8.33;;;1.90;;
20322;SDS011;10319;52.206;20.996;2022-07-09T03:19:53;8.30;;;1.93;;
20322;SDS011;10319;52.206;20.996;2022-07-09T03:22:18;7.30;;;1.93;;
20322;SDS011;10319;52.206;20.996;2022-07-09T03:24:43;8.50;;;1.80;;
20322;SDS011;10319;52.206;20.996;2022-07-09T03:27:08;10.07;;;2.30;;
20322;SDS011;10319;52.206;20.996;2022-07-09T03:29:34;8.37;;;2.10;;
20322;SDS011;10319;52.206;20.996;2022-07-09T03:31:59;9.73;;;2.10;;
20322;SDS011;10319;52.206;20.996;2022-07-09T03:34:25;7.73;;;2.17;;
20322;SDS011;10319;52.206;20.996;2022-07-09T03:36:50;6.03;;;1.63;;
20322;SDS011;10319;52.206;20.996;2022-07-09T03:39:15;7.47;;;1.80;;
20322;SDS011;10319;52.206;20.996;2022-07-09T03:41:40;7.73;;;1.67;;
20322;SDS011;10319;52.206;20.996;2022-07-09T03:44:06;12.37;;;2.50;;
20322;SDS011;10319;52.206;20.996;2022-07-09T03:46:31;6.53;;;1.80;;
20322;SDS011;10319;52.206;20.996;2022-07-09T03:48:56;12.53;;;2.37;;
20322;SDS011;10319;52.206;20.996;2022-07-09T03:51:21;7.80;;;2.00;;
20322;SDS011;10319;52.206;20.996;2022-07-09T03:53:47;12.07;;;2.00;;
20322;SDS011;10319;52.206;20.996;2022-07-09T03:56:12;9.43;;;2.03;;
20322;SDS011;10319;52.206;20.996;2022-07-09T03:58:37;10.07;;;2.00;;
20322;SDS011;10319;52.206;20.996;2022-07-09T04:01:03;9.33;;;2.30;;
20322;SDS011;10319;52.206;20.996;2022-07-09T04:03:28;6.07;;;1.70;;
20322;SDS011;10319;52.206;20.996;2022-07-09T04:05:53;10.60;;;2.03;;
20322;SDS011;10319;52.206;20.996;2022-07-09T04:08:18;6.77;;;1.90;;
20322;SDS011;10319;52.206;20.996;2022-07-09T04:10:43;8.47;;;1.93;;
20322;SDS011;10319;52.206;20.996;2022-07-09T04:13:09;7.87;;;1.70;;
20322;SDS011;10319;52.206;20.996;2022-07-09T04:15:34;11.03;;;1.93;;
20322;SDS011;10319;52.206;20.996;2022-07-09T04:17:59;9.67;;;1.60;;
20322;SDS011;10319;52.206;20.996;2022-07-09T04:20:24;6.20;;;1.70;;
20322;SDS011;10319;52.206;20.996;2022-07-09T04:22:50;7.00;;;1.67;;
20322;SDS011;10319;52.206;20.996;2022-07-09T04:25:16;7.30;;;1.60;;
20322;SDS011;10319;52.206;20.996;2022-07-09T04:27:41;7.00;;;1.80;;
20322;SDS011;10319;52.206;20.996;2022-07-09T04:30:07;7.97;;;1.87;;
20322;SDS011;10319;52.206;20.996;2022-07-09T04:32:33;9.80;;;2.10;;
20322;SDS011;10319;52.206;20.996;2022-07-09T04:34:58;8.57;;;1.73;;
20322;SDS011;10319;52.206;20.996;2022-07-09T04:37:24;9.83;;;2.10;;
20322;SDS011;10319;52.206;20.996;2022-07-09T04:39:49;10.50;;;2.20;;
20322;SDS011;10319;52.206;20.996;2022-07-09T04:42:14;11.40;;;2.30;;
20322;SDS011;10319;52.206;20.996;2022-07-09T04:44:39;8.20;;;2.30;;
20322;SDS011;10319;52.206;20.996;2022-07-09T04:47:07;8.37;;;2.17;;
20322;SDS011;10319;52.206;20.996;2022-07-09T04:49:32;8.13;;;2.10;;
20322;SDS011;10319;52.206;20.996;2022-07-09T04:51:57;10.93;;;2.40;;
20322;SDS011;10319;52.206;20.996;2022-07-09T04:54:22;9.07;;;1.93;;
20322;SDS011;10319;52.206;20.996;2022-07-09T04:56:47;9.47;;;2.30;;
20322;SDS011;10319;52.206;20.996;2022-07-09T04:59:13;13.20;;;2.60;;
20322;SDS011;10319;52.206;20.996;2022-07-09T05:01:38;9.60;;;2.37;;
20322;SDS011;10319;52.206;20.996;2022-07-09T05:04:03;8.63;;;2.40;;
20322;SDS011;10319;52.206;20.996;2022-07-09T05:06:28;13.47;;;2.60;;
20322;SDS011;10319;52.206;20.996;2022-07-09T05:08:53;11.60;;;2.43;;
20322;SDS011;10319;52.206;20.996;2022-07-09T05:11:19;10.43;;;2.40;;
20322;SDS011;10319;52.206;20.996;2022-07-09T05:13:45;8.07;;;2.33;;
20322;SDS011;10319;52.206;20.996;2022-07-09T05:16:11;11.63;;;2.57;;
20322;SDS011;10319;52.206;20.996;2022-07-09T05:18:36;12.30;;;2.73;;
20322;SDS011;10319;52.206;20.996;2022-07-09T05:21:01;11.13;;;2.50;;
20322;SDS011;10319;52.206;20.996;2022-07-09T05:23:27;10.40;;;2.47;;
20322;SDS011;10319;52.206;20.996;2022-07-09T05:25:52;10.50;;;2.60;;
20322;SDS011;10319;52.206;20.996;2022-07-09T05:28:18;8.50;;;2.27;;
20322;SDS011;10319;52.206;20.996;2022-07-09T05:30:43;6.63;;;1.93;;
20322;SDS011;10319;52.206;20.996;2022-07-09T05:33:09;7.77;;;1.97;;
20322;SDS011;10319;52.206;20.996;2022-07-09T05:35:34;7.83;;;2.10;;
20322;SDS011;10319;52.206;20.996;2022-07-09T05:37:59;7.87;;;2.07;;
20322;SDS011;10319;52.206;20.996;2022-07-09T05:40:24;5.77;;;1.80;;
20322;SDS011;10319;52.206;20.996;2022-07-09T05:42:50;8.17;;;1.80;;
20322;SDS011;10319;52.206;20.996;2022-07-09T05:45:15;11.60;;;2.60;;
20322;SDS011;10319;52.206;20.996;2022-07-09T05:47:40;10.33;;;2.43;;
20322;SDS011;10319;52.206;20.996;2022-07-09T05:50:06;10.20;;;2.50;;
20322;SDS011;10319;52.206;20.996;2022-07-09T05:52:31;9.70;;;2.23;;
20322;SDS011;10319;52.206;20.996;2022-07-09T05:54:57;11.67;;;2.40;;
20322;SDS011;10319;52.206;20.996;2022-07-09T05:57:22;7.50;;;2.27;;
20322;SDS011;10319;52.206;20.996;2022-07-09T05:59:47;8.70;;;2.23;;
20322;SDS011;10319;52.206;20.996;2022-07-09T06:02:12;7.37;;;2.13;;
20322;SDS011;10319;52.206;20.996;2022-07-09T06:04:37;7.67;;;2.10;;
20322;SDS011;10319;52.206;20.996;2022-07-09T06:07:03;7.77;;;2.53;;
20322;SDS011;10319;52.206;20.996;2022-07-09T06:09:28;11.13;;;3.00;;
20322;SDS011;10319;52.206;20.996;2022-07-09T06:11:54;8.57;;;2.57;;
20322;SDS011;10319;52.206;20.996;2022-07-09T06:14:19;9.53;;;3.10;;
20322;SDS011;10319;52.206;20.996;2022-07-09T06:16:44;8.03;;;2.83;;
20322;SDS011;10319;52.206;20.996;2022-07-09T06:19:12;9.73;;;2.70;;
20322;SDS011;10319;52.206;20.996;2022-07-09T06:21:37;9.13;;;2.80;;
20322;SDS011;10319;52.206;20.996;2022-07-09T06:24:03;7.57;;;2.33;;
20322;SDS011;10319;52.206;20.996;2022-07-09T06:26:28;9.63;;;2.87;;
20322;SDS011;10319;52.206;20.996;2022-07-09T06:28:53;10.03;;;2.80;;
20322;SDS011;10319;52.206;20.996;2022-07-09T06:31:19;9.10;;;2.30;;
20322;SDS011;10319;52.206;20.996;2022-07-09T06:33:44;8.90;;;2.43;;
20322;SDS011;10319;52.206;20.996;2022-07-09T06:36:09;6.30;;;2.03;;
20322;SDS011;10319;52.206;20.996;2022-07-09T06:38:34;9.70;;;2.53;;
20322;SDS011;10319;52.206;20.996;2022-07-09T06:41:19;7.67;;;2.30;;
20322;SDS011;10319;52.206;20.996;2022-07-09T06:43:45;8.90;;;2.50;;
20322;SDS011;10319;52.206;20.996;2022-07-09T06:46:11;11.50;;;3.50;;
20322;SDS011;10319;52.206;20.996;2022-07-09T06:48:36;9.77;;;2.93;;
20322;SDS011;10319;52.206;20.996;2022-07-09T06:51:01;9.27;;;3.03;;
20322;SDS011;10319;52.206;20.996;2022-07-09T06:53:26;8.33;;;3.13;;
20322;SDS011;10319;52.206;20.996;2022-07-09T06:55:51;7.67;;;2.77;;
20322;SDS011;10319;52.206;20.996;2022-07-09T06:58:16;10.80;;;3.10;;
20322;SDS011;10319;52.206;20.996;2022-07-09T07:00:42;9.40;;;2.93;;
20322;SDS011;10319;52.206;20.996;2022-07-09T07:03:07;9.40;;;2.63;;
20322;SDS011;10319;52.206;20.996;2022-07-09T07:05:32;10.77;;;2.90;;
20322;SDS011;10319;52.206;20.996;2022-07-09T07:07:58;8.97;;;2.70;;
20322;SDS011;10319;52.206;20.996;2022-07-09T07:10:23;8.17;;;2.70;;
20322;SDS011;10319;52.206;20.996;2022-07-09T07:12:48;8.93;;;2.70;;
20322;SDS011;10319;52.206;20.996;2022-07-09T07:15:13;9.00;;;2.70;;
20322;SDS011;10319;52.206;20.996;2022-07-09T07:17:39;10.00;;;2.80;;
20322;SDS011;10319;52.206;20.996;2022-07-09T07:20:04;11.13;;;2.60;;
20322;SDS011;10319;52.206;20.996;2022-07-09T07:22:31;7.10;;;2.30;;
20322;SDS011;10319;52.206;20.996;2022-07-09T07:25:00;7.40;;;2.23;;
20322;SDS011;10319;52.206;20.996;2022-07-09T07:27:25;6.53;;;2.20;;
20322;SDS011;10319;52.206;20.996;2022-07-09T07:29:50;5.37;;;2.00;;
20322;SDS011;10319;52.206;20.996;2022-07-09T07:32:15;4.43;;;2.10;;
20322;SDS011;10319;52.206;20.996;2022-07-09T07:34:41;7.63;;;2.10;;
20322;SDS011;10319;52.206;20.996;2022-07-09T07:37:06;8.10;;;2.10;;
20322;SDS011;10319;52.206;20.996;2022-07-09T07:39:32;5.47;;;1.80;;
20322;SDS011;10319;52.206;20.996;2022-07-09T07:45:06;7.10;;;1.50;;
20322;SDS011;10319;52.206;20.996;2022-07-09T07:47:33;7.53;;;1.73;;
20322;SDS011;10319;52.206;20.996;2022-07-09T07:49:59;7.30;;;1.70;;
20322;SDS011;10319;52.206;20.996;2022-07-09T07:52:31;5.90;;;1.50;;
20322;SDS011;10319;52.206;20.996;2022-07-09T07:54:57;6.27;;;1.30;;
20322;SDS011;10319;52.206;20.996;2022-07-09T07:57:22;5.30;;;1.40;;
20322;SDS011;10319;52.206;20.996;2022-07-09T08:02:57;4.03;;;1.13;;
20322;SDS011;10319;52.206;20.996;2022-07-09T08:05:23;2.38;;;1.17;;
20322;SDS011;10319;52.206;20.996;2022-07-09T08:07:58;3.60;;;1.08;;
20322;SDS011;10319;52.206;20.996;2022-07-09T08:14:13;5.97;;;1.58;;
20322;SDS011;10319;52.206;20.996;2022-07-09T08:23:21;7.50;;;1.63;;
20322;SDS011;10319;52.206;20.996;2022-07-09T08:25:47;2.80;;;1.25;;
20322;SDS011;10319;52.206;20.996;2022-07-09T08:28:13;5.68;;;1.42;;
20322;SDS011;10319;52.206;20.996;2022-07-09T08:30:39;4.05;;;0.90;;
20322;SDS011;10319;52.206;20.996;2022-07-09T08:33:25;6.70;;;1.40;;
20322;SDS011;10319;52.206;20.996;2022-07-09T08:45:12;3.53;;;1.00;;
20322;SDS011;10319;52.206;20.996;2022-07-09T08:47:38;6.30;;;1.00;;
20322;SDS011;10319;52.206;20.996;2022-07-09T08:50:03;2.80;;;0.77;;
20322;SDS011;10319;52.206;20.996;2022-07-09T08:52:29;3.08;;;0.73;;
20322;SDS011;10319;52.206;20.996;2022-07-09T08:54:54;5.30;;;0.93;;
20322;SDS011;10319;52.206;20.996;2022-07-09T08:57:19;9.25;;;1.10;;
20322;SDS011;10319;52.206;20.996;2022-07-09T08:59:44;4.85;;;1.00;;
20322;SDS011;10319;52.206;20.996;2022-07-09T09:02:10;6.43;;;1.10;;
20322;SDS011;10319;52.206;20.996;2022-07-09T09:04:37;4.50;;;1.02;;
20322;SDS011;10319;52.206;20.996;2022-07-09T09:07:19;2.15;;;0.95;;
20322;SDS011;10319;52.206;20.996;2022-07-09T09:09:46;5.57;;;1.33;;
20322;SDS011;10319;52.206;20.996;2022-07-09T09:12:12;5.78;;;1.02;;
20322;SDS011;10319;52.206;20.996;2022-07-09T09:14:38;5.15;;;1.10;;
20322;SDS011;10319;52.206;20.996;2022-07-09T09:17:06;6.55;;;1.08;;
20322;SDS011;10319;52.206;20.996;2022-07-09T09:19:34;4.57;;;0.90;;
20322;SDS011;10319;52.206;20.996;2022-07-09T09:21:59;3.30;;;0.90;;
20322;SDS011;10319;52.206;20.996;2022-07-09T09:24:25;5.00;;;0.82;;
20322;SDS011;10319;52.206;20.996;2022-07-09T09:26:51;3.80;;;1.00;;
20322;SDS011;10319;52.206;20.996;2022-07-09T09:29:16;4.45;;;0.80;;
20322;SDS011;10319;52.206;20.996;2022-07-09T09:31:41;4.57;;;1.02;;
20322;SDS011;10319;52.206;20.996;2022-07-09T09:34:10;5.88;;;1.08;;
20322;SDS011;10319;52.206;20.996;2022-07-09T09:36:36;4.65;;;1.00;;
20322;SDS011;10319;52.206;20.996;2022-07-09T09:41:36;2.63;;;0.70;;
20322;SDS011;10319;52.206;20.996;2022-07-09T09:44:04;5.70;;;1.00;;
20322;SDS011;10319;52.206;20.996;2022-07-09T09:46:30;6.47;;;1.15;;
20322;SDS011;10319;52.206;20.996;2022-07-09T09:48:55;5.18;;;1.35;;
20322;SDS011;10319;52.206;20.996;2022-07-09T09:51:21;6.38;;;1.20;;
20322;SDS011;10319;52.206;20.996;2022-07-09T09:53:47;3.97;;;0.82;;
20322;SDS011;10319;52.206;20.996;2022-07-09T09:56:12;5.80;;;0.98;;
20322;SDS011;10319;52.206;20.996;2022-07-09T09:58:38;2.38;;;0.70;;
20322;SDS011;10319;52.206;20.996;2022-07-09T10:01:04;9.70;;;1.10;;
20322;SDS011;10319;52.206;20.996;2022-07-09T10:03:30;6.00;;;1.00;;
20322;SDS011;10319;52.206;20.996;2022-07-09T10:05:55;5.05;;;0.90;;
20322;SDS011;10319;52.206;20.996;2022-07-09T10:08:20;4.47;;;1.10;;
20322;SDS011;10319;52.206;20.996;2022-07-09T10:10:51;5.65;;;1.10;;
20322;SDS011;10319;52.206;20.996;2022-07-09T10:13:23;5.88;;;1.10;;
20322;SDS011;10319;52.206;20.996;2022-07-09T10:15:48;5.15;;;0.98;;
20322;SDS011;10319;52.206;20.996;2022-07-09T10:18:16;6.22;;;1.10;;
20322;SDS011;10319;52.206;20.996;2022-07-09T10:20:42;3.95;;;1.00;;
20322;SDS011;10319;52.206;20.996;2022-07-09T10:23:08;6.13;;;1.27;;
20322;SDS011;10319;52.206;20.996;2022-07-09T10:25:45;8.05;;;1.30;;
20322;SDS011;10319;52.206;20.996;2022-07-09T10:28:17;7.00;;;1.13;;
20322;SDS011;10319;52.206;20.996;2022-07-09T10:30:43;4.28;;;1.00;;
20322;SDS011;10319;52.206;20.996;2022-07-09T10:33:10;7.45;;;1.38;;
20322;SDS011;10319;52.206;20.996;2022-07-09T10:35:39;7.70;;;1.33;;
20322;SDS011;10319;52.206;20.996;2022-07-09T10:38:05;4.97;;;0.90;;
20322;SDS011;10319;52.206;20.996;2022-07-09T10:40:37;7.38;;;1.10;;
20322;SDS011;10319;52.206;20.996;2022-07-09T10:43:02;6.38;;;1.00;;
20322;SDS011;10319;52.206;20.996;2022-07-09T10:45:29;8.65;;;1.05;;
20322;SDS011;10319;52.206;20.996;2022-07-09T10:47:59;6.53;;;1.13;;
20322;SDS011;10319;52.206;20.996;2022-07-09T10:50:25;4.00;;;0.95;;
20322;SDS011;10319;52.206;20.996;2022-07-09T10:52:51;6.13;;;1.17;;
20322;SDS011;10319;52.206;20.996;2022-07-09T10:55:17;7.60;;;1.23;;
20322;SDS011;10319;52.206;20.996;2022-07-09T10:57:42;4.93;;;0.85;;
20322;SDS011;10319;52.206;20.996;2022-07-09T11:00:08;5.43;;;1.30;;
20322;SDS011;10319;52.206;20.996;2022-07-09T11:02:35;6.97;;;1.10;;
20322;SDS011;10319;52.206;20.996;2022-07-09T11:05:00;6.35;;;0.98;;
20322;SDS011;10319;52.206;20.996;2022-07-09T11:07:25;7.05;;;1.08;;
20322;SDS011;10319;52.206;20.996;2022-07-09T11:09:51;4.35;;;0.90;;
20322;SDS011;10319;52.206;20.996;2022-07-09T11:12:17;5.82;;;1.10;;
20322;SDS011;10319;52.206;20.996;2022-07-09T11:14:46;3.80;;;0.85;;
20322;SDS011;10319;52.206;20.996;2022-07-09T11:17:15;5.70;;;1.10;;
20322;SDS011;10319;52.206;20.996;2022-07-09T11:19:41;3.45;;;0.77;;
20322;SDS011;10319;52.206;20.996;2022-07-09T11:22:06;5.85;;;1.15;;
20322;SDS011;10319;52.206;20.996;2022-07-09T11:24:31;3.22;;;0.70;;
20322;SDS011;10319;52.206;20.996;2022-07-09T11:27:06;3.90;;;0.75;;
20322;SDS011;10319;52.206;20.996;2022-07-09T11:29:32;3.80;;;0.68;;
20322;SDS011;10319;52.206;20.996;2022-07-09T11:31:57;4.05;;;1.00;;
20322;SDS011;10319;52.206;20.996;2022-07-09T11:34:23;3.25;;;0.93;;
20322;SDS011;10319;52.206;20.996;2022-07-09T11:36:55;5.00;;;1.00;;
20322;SDS011;10319;52.206;20.996;2022-07-09T11:41:48;5.40;;;0.80;;
20322;SDS011;10319;52.206;20.996;2022-07-09T11:47:04;1.45;;;0.70;;
20322;SDS011;10319;52.206;20.996;2022-07-09T11:49:39;6.47;;;0.95;;
20322;SDS011;10319;52.206;20.996;2022-07-09T11:52:16;3.38;;;0.70;;
20322;SDS011;10319;52.206;20.996;2022-07-09T11:54:53;5.90;;;1.10;;
20322;SDS011;10319;52.206;20.996;2022-07-09T11:57:19;3.08;;;0.68;;
20322;SDS011;10319;52.206;20.996;2022-07-09T11:59:44;5.18;;;0.90;;
20322;SDS011;10319;52.206;20.996;2022-07-09T12:02:09;4.07;;;0.60;;
20322;SDS011;10319;52.206;20.996;2022-07-09T12:04:34;3.28;;;0.80;;
20322;SDS011;10319;52.206;20.996;2022-07-09T12:06:59;2.90;;;0.90;;
20322;SDS011;10319;52.206;20.996;2022-07-09T12:09:28;4.40;;;0.68;;
20322;SDS011;10319;52.206;20.996;2022-07-09T12:11:54;6.10;;;0.77;;
20322;SDS011;10319;52.206;20.996;2022-07-09T12:14:20;3.80;;;0.73;;
20322;SDS011;10319;52.206;20.996;2022-07-09T12:16:45;3.43;;;0.70;;
20322;SDS011;10319;52.206;20.996;2022-07-09T12:19:10;2.23;;;0.60;;
20322;SDS011;10319;52.206;20.996;2022-07-09T12:21:35;2.90;;;0.77;;
20322;SDS011;10319;52.206;20.996;2022-07-09T12:24:00;4.32;;;0.80;;
20322;SDS011;10319;52.206;20.996;2022-07-09T12:26:26;4.72;;;0.82;;
20322;SDS011;10319;52.206;20.996;2022-07-09T12:28:51;4.95;;;1.00;;
20322;SDS011;10319;52.206;20.996;2022-07-09T12:31:16;6.97;;;1.00;;
20322;SDS011;10319;52.206;20.996;2022-07-09T12:33:41;5.10;;;1.07;;
20322;SDS011;10319;52.206;20.996;2022-07-09T12:36:06;5.25;;;1.00;;
20322;SDS011;10319;52.206;20.996;2022-07-09T12:38:32;3.85;;;1.00;;
20322;SDS011;10319;52.206;20.996;2022-07-09T12:40:57;3.17;;;0.80;;
20322;SDS011;10319;52.206;20.996;2022-07-09T12:43:22;7.18;;;1.13;;
20322;SDS011;10319;52.206;20.996;2022-07-09T12:45:47;4.00;;;0.73;;
20322;SDS011;10319;52.206;20.996;2022-07-09T12:48:13;4.05;;;0.90;;
20322;SDS011;10319;52.206;20.996;2022-07-09T12:50:38;4.60;;;0.70;;
20322;SDS011;10319;52.206;20.996;2022-07-09T12:53:03;3.85;;;0.73;;
20322;SDS011;10319;52.206;20.996;2022-07-09T12:55:28;5.10;;;0.82;;
20322;SDS011;10319;52.206;20.996;2022-07-09T12:57:53;4.45;;;1.00;;
20322;SDS011;10319;52.206;20.996;2022-07-09T13:00:19;4.37;;;0.70;;
20322;SDS011;10319;52.206;20.996;2022-07-09T13:02:44;4.00;;;0.80;;
20322;SDS011;10319;52.206;20.996;2022-07-09T13:05:09;3.20;;;0.98;;
20322;SDS011;10319;52.206;20.996;2022-07-09T13:07:34;5.17;;;1.10;;
20322;SDS011;10319;52.206;20.996;2022-07-09T13:10:00;5.55;;;0.80;;
20322;SDS011;10319;52.206;20.996;2022-07-09T13:12:25;1.90;;;0.70;;
20322;SDS011;10319;52.206;20.996;2022-07-09T13:14:50;6.53;;;0.93;;
20322;SDS011;10319;52.206;20.996;2022-07-09T13:17:15;3.37;;;0.63;;
20322;SDS011;10319;52.206;20.996;2022-07-09T13:19:40;3.83;;;0.80;;
20322;SDS011;10319;52.206;20.996;2022-07-09T13:22:06;6.10;;;1.10;;
20322;SDS011;10319;52.206;20.996;2022-07-09T13:24:34;4.43;;;0.88;;
20322;SDS011;10319;52.206;20.996;2022-07-09T13:27:00;6.63;;;1.20;;
20322;SDS011;10319;52.206;20.996;2022-07-09T13:29:27;3.90;;;1.00;;
20322;SDS011;10319;52.206;20.996;2022-07-09T13:31:52;3.88;;;0.80;;
20322;SDS011;10319;52.206;20.996;2022-07-09T13:34:17;4.75;;;1.02;;
20322;SDS011;10319;52.206;20.996;2022-07-09T13:36:43;3.60;;;1.00;;
20322;SDS011;10319;52.206;20.996;2022-07-09T13:39:08;6.47;;;1.20;;
20322;SDS011;10319;52.206;20.996;2022-07-09T13:41:33;5.57;;;1.33;;
20322;SDS011;10319;52.206;20.996;2022-07-09T13:43:58;3.40;;;1.10;;
20322;SDS011;10319;52.206;20.996;2022-07-09T13:46:23;5.95;;;1.10;;
20322;SDS011;10319;52.206;20.996;2022-07-09T13:48:49;6.05;;;1.20;;
20322;SDS011;10319;52.206;20.996;2022-07-09T13:51:14;4.07;;;1.30;;
20322;SDS011;10319;52.206;20.996;2022-07-09T13:53:39;7.10;;;1.20;;
20322;SDS011;10319;52.206;20.996;2022-07-09T13:56:05;5.22;;;1.20;;
20322;SDS011;10319;52.206;20.996;2022-07-09T13:58:31;6.88;;;1.20;;
20322;SDS011;10319;52.206;20.996;2022-07-09T14:00:56;5.25;;;1.30;;
20322;SDS011;10319;52.206;20.996;2022-07-09T14:03:21;6.70;;;1.30;;
20322;SDS011;10319;52.206;20.996;2022-07-09T14:05:46;3.13;;;1.30;;
20322;SDS011;10319;52.206;20.996;2022-07-09T14:08:12;6.93;;;1.60;;
20322;SDS011;10319;52.206;20.996;2022-07-09T14:10:37;7.18;;;1.40;;
20322;SDS011;10319;52.206;20.996;2022-07-09T14:13:02;3.42;;;0.98;;
20322;SDS011;10319;52.206;20.996;2022-07-09T14:15:27;7.57;;;1.60;;
20322;SDS011;10319;52.206;20.996;2022-07-09T14:17:53;5.30;;;1.20;;
20322;SDS011;10319;52.206;20.996;2022-07-09T14:20:18;3.08;;;1.08;;
20322;SDS011;10319;52.206;20.996;2022-07-09T14:22:44;4.50;;;1.30;;
20322;SDS011;10319;52.206;20.996;2022-07-09T14:25:09;8.65;;;1.50;;
20322;SDS011;10319;52.206;20.996;2022-07-09T14:27:34;4.15;;;1.23;;
20322;SDS011;10319;52.206;20.996;2022-07-09T14:30:00;4.82;;;1.20;;
20322;SDS011;10319;52.206;20.996;2022-07-09T14:32:25;5.65;;;1.38;;
20322;SDS011;10319;52.206;20.996;2022-07-09T14:34:50;5.18;;;1.20;;
20322;SDS011;10319;52.206;20.996;2022-07-09T14:37:15;6.55;;;1.20;;
20322;SDS011;10319;52.206;20.996;2022-07-09T14:39:41;7.93;;;1.27;;
20322;SDS011;10319;52.206;20.996;2022-07-09T14:42:06;5.30;;;1.38;;
20322;SDS011;10319;52.206;20.996;2022-07-09T14:44:31;3.67;;;1.15;;
20322;SDS011;10319;52.206;20.996;2022-07-09T14:46:57;5.18;;;1.20;;
20322;SDS011;10319;52.206;20.996;2022-07-09T14:49:26;7.53;;;1.60;;
20322;SDS011;10319;52.206;20.996;2022-07-09T14:51:52;6.22;;;1.20;;
20322;SDS011;10319;52.206;20.996;2022-07-09T14:54:17;8.35;;;1.58;;
20322;SDS011;10319;52.206;20.996;2022-07-09T14:56:43;6.18;;;1.48;;
20322;SDS011;10319;52.206;20.996;2022-07-09T14:59:08;4.80;;;1.20;;